sensor_id;sensor_type;location;lat;lon;timestamp;P1;durP1;ratioP1;P2;durP2;ratioP2
18021;SDS011;9136;48.822;7.966;2023-03-02T00:00:52;22.40;;;21.00;;
18021;SDS011;9136;48.822;7.966;2023-03-02T00:03:41;21.43;;;20.43;;
18021;SDS011;9136;48.822;7.966;2023-03-02T00:06:31;23.57;;;22.37;;
18021;SDS011;9136;48.822;7.966;2023-03-02T00:09:22;24.20;;;23.00;;
18021;SDS011;9136;48.822;7.966;2023-03-02T00:12:09;24.13;;;22.70;;
18021;SDS011;9136;48.822;7.966;2023-03-02T00:14:58;25.47;;;24.13;;
18021;SDS011;9136;48.822;7.966;2023-03-02T00:17:46;24.07;;;22.87;;
18021;SDS011;9136;48.822;7.966;2023-03-02T00:20:34;20.03;;;18.73;;
18021;SDS011;9136;48.822;7.966;2023-03-02T00:23:23;24.10;;;23.00;;
18021;SDS011;9136;48.822;7.966;2023-03-02T00:26:11;24.97;;;23.77;;
18021;SDS011;9136;48.822;7.966;2023-03-02T00:28:59;24.00;;;22.90;;
18021;SDS011;9136;48.822;7.966;2023-03-02T00:31:46;23.53;;;22.13;;
18021;SDS011;9136;48.822;7.966;2023-03-02T00:34:34;21.73;;;20.67;;
18021;SDS011;9136;48.822;7.966;2023-03-02T00:37:22;23.07;;;21.87;;
18021;SDS011;9136;48.822;7.966;2023-03-02T00:40:12;25.27;;;23.97;;
18021;SDS011;9136;48.822;7.966;2023-03-02T00:43:00;25.20;;;24.00;;
18021;SDS011;9136;48.822;7.966;2023-03-02T00:45:48;24.30;;;23.10;;
18021;SDS011;9136;48.822;7.966;2023-03-02T00:48:36;24.87;;;23.67;;
18021;SDS011;9136;48.822;7.966;2023-03-02T00:51:24;23.63;;;22.43;;
18021;SDS011;9136;48.822;7.966;2023-03-02T00:54:12;24.23;;;23.03;;
18021;SDS011;9136;48.822;7.966;2023-03-02T00:57:01;23.13;;;21.93;;
18021;SDS011;9136;48.822;7.966;2023-03-02T00:59:49;24.47;;;23.20;;
18021;SDS011;9136;48.822;7.966;2023-03-02T01:02:37;24.10;;;22.90;;
18021;SDS011;9136;48.822;7.966;2023-03-02T01:05:28;23.67;;;22.53;;
18021;SDS011;9136;48.822;7.966;2023-03-02T01:08:16;25.20;;;23.90;;
18021;SDS011;9136;48.822;7.966;2023-03-02T01:11:11;23.33;;;22.13;;
18021;SDS011;9136;48.822;7.966;2023-03-02T01:14:00;26.67;;;24.97;;
18021;SDS011;9136;48.822;7.966;2023-03-02T01:16:48;23.00;;;21.80;;
18021;SDS011;9136;48.822;7.966;2023-03-02T01:19:36;24.13;;;22.60;;
18021;SDS011;9136;48.822;7.966;2023-03-02T01:22:24;27.20;;;25.13;;
18021;SDS011;9136;48.822;7.966;2023-03-02T01:25:12;21.63;;;20.40;;
18021;SDS011;9136;48.822;7.966;2023-03-02T01:28:00;25.67;;;24.33;;
18021;SDS011;9136;48.822;7.966;2023-03-02T01:30:49;23.43;;;22.20;;
18021;SDS011;9136;48.822;7.966;2023-03-02T01:33:37;23.43;;;22.33;;
18021;SDS011;9136;48.822;7.966;2023-03-02T01:36:24;24.93;;;23.83;;
18021;SDS011;9136;48.822;7.966;2023-03-02T01:39:12;25.17;;;23.60;;
18021;SDS011;9136;48.822;7.966;2023-03-02T01:42:01;22.27;;;20.97;;
18021;SDS011;9136;48.822;7.966;2023-03-02T01:44:49;23.43;;;22.23;;
18021;SDS011;9136;48.822;7.966;2023-03-02T01:47:40;24.60;;;23.03;;
18021;SDS011;9136;48.822;7.966;2023-03-02T01:50:28;23.93;;;22.77;;
18021;SDS011;9136;48.822;7.966;2023-03-02T01:53:16;29.03;;;27.53;;
18021;SDS011;9136;48.822;7.966;2023-03-02T01:56:05;26.20;;;24.77;;
18021;SDS011;9136;48.822;7.966;2023-03-02T01:58:55;24.60;;;23.30;;
18021;SDS011;9136;48.822;7.966;2023-03-02T02:01:47;20.87;;;19.87;;
18021;SDS011;9136;48.822;7.966;2023-03-02T02:04:40;24.77;;;23.43;;
18021;SDS011;9136;48.822;7.966;2023-03-02T02:07:31;24.20;;;22.97;;
18021;SDS011;9136;48.822;7.966;2023-03-02T02:10:19;24.27;;;23.00;;
18021;SDS011;9136;48.822;7.966;2023-03-02T02:13:08;25.43;;;24.23;;
18021;SDS011;9136;48.822;7.966;2023-03-02T02:15:56;25.97;;;24.77;;
18021;SDS011;9136;48.822;7.966;2023-03-02T02:18:44;25.83;;;24.60;;
18021;SDS011;9136;48.822;7.966;2023-03-02T02:21:33;26.67;;;25.43;;
18021;SDS011;9136;48.822;7.966;2023-03-02T02:24:21;23.20;;;22.10;;
18021;SDS011;9136;48.822;7.966;2023-03-02T02:27:16;27.07;;;25.63;;
18021;SDS011;9136;48.822;7.966;2023-03-02T02:30:05;25.63;;;24.20;;
18021;SDS011;9136;48.822;7.966;2023-03-02T02:32:53;24.20;;;23.03;;
18021;SDS011;9136;48.822;7.966;2023-03-02T02:35:43;25.70;;;23.90;;
18021;SDS011;9136;48.822;7.966;2023-03-02T02:38:32;26.37;;;24.77;;
18021;SDS011;9136;48.822;7.966;2023-03-02T02:41:23;24.73;;;23.43;;
18021;SDS011;9136;48.822;7.966;2023-03-02T02:44:16;27.93;;;26.53;;
18021;SDS011;9136;48.822;7.966;2023-03-02T02:47:07;26.93;;;25.53;;
18021;SDS011;9136;48.822;7.966;2023-03-02T02:50:01;23.07;;;21.90;;
18021;SDS011;9136;48.822;7.966;2023-03-02T02:52:50;25.20;;;23.90;;
18021;SDS011;9136;48.822;7.966;2023-03-02T02:55:43;26.07;;;24.60;;
18021;SDS011;9136;48.822;7.966;2023-03-02T02:58:35;26.37;;;25.07;;
18021;SDS011;9136;48.822;7.966;2023-03-02T03:01:28;28.67;;;27.27;;
18021;SDS011;9136;48.822;7.966;2023-03-02T03:04:17;26.17;;;24.90;;
18021;SDS011;9136;48.822;7.966;2023-03-02T03:07:09;25.13;;;23.93;;
18021;SDS011;9136;48.822;7.966;2023-03-02T03:10:00;23.40;;;22.23;;
18021;SDS011;9136;48.822;7.966;2023-03-02T03:12:55;26.40;;;25.00;;
18021;SDS011;9136;48.822;7.966;2023-03-02T03:15:42;28.90;;;27.30;;
18021;SDS011;9136;48.822;7.966;2023-03-02T03:18:32;25.50;;;24.20;;
18021;SDS011;9136;48.822;7.966;2023-03-02T03:21:20;26.00;;;24.70;;
18021;SDS011;9136;48.822;7.966;2023-03-02T03:24:07;25.33;;;23.83;;
18021;SDS011;9136;48.822;7.966;2023-03-02T03:26:55;25.53;;;24.30;;
18021;SDS011;9136;48.822;7.966;2023-03-02T03:29:45;26.47;;;25.27;;
18021;SDS011;9136;48.822;7.966;2023-03-02T03:32:34;27.73;;;26.23;;
18021;SDS011;9136;48.822;7.966;2023-03-02T03:35:24;25.37;;;24.17;;
18021;SDS011;9136;48.822;7.966;2023-03-02T03:38:12;25.03;;;23.77;;
18021;SDS011;9136;48.822;7.966;2023-03-02T03:40:59;26.00;;;24.57;;
18021;SDS011;9136;48.822;7.966;2023-03-02T03:43:47;25.83;;;24.63;;
18021;SDS011;9136;48.822;7.966;2023-03-02T03:46:35;26.57;;;25.27;;
18021;SDS011;9136;48.822;7.966;2023-03-02T03:49:23;23.87;;;22.57;;
18021;SDS011;9136;48.822;7.966;2023-03-02T03:52:13;24.60;;;23.40;;
18021;SDS011;9136;48.822;7.966;2023-03-02T03:55:01;25.53;;;24.13;;
18021;SDS011;9136;48.822;7.966;2023-03-02T03:57:49;26.17;;;24.67;;
18021;SDS011;9136;48.822;7.966;2023-03-02T04:00:37;27.13;;;25.73;;
18021;SDS011;9136;48.822;7.966;2023-03-02T04:03:24;24.60;;;23.37;;
18021;SDS011;9136;48.822;7.966;2023-03-02T04:06:12;27.43;;;25.97;;
18021;SDS011;9136;48.822;7.966;2023-03-02T04:09:05;22.20;;;21.17;;
18021;SDS011;9136;48.822;7.966;2023-03-02T04:11:54;22.13;;;21.13;;
18021;SDS011;9136;48.822;7.966;2023-03-02T04:14:43;25.43;;;24.13;;
18021;SDS011;9136;48.822;7.966;2023-03-02T04:17:31;26.90;;;25.57;;
18021;SDS011;9136;48.822;7.966;2023-03-02T04:20:20;24.57;;;23.30;;
18021;SDS011;9136;48.822;7.966;2023-03-02T04:23:08;26.43;;;25.13;;
18021;SDS011;9136;48.822;7.966;2023-03-02T04:25:57;25.27;;;23.87;;
18021;SDS011;9136;48.822;7.966;2023-03-02T04:28:50;23.90;;;22.80;;
18021;SDS011;9136;48.822;7.966;2023-03-02T04:31:39;26.30;;;24.90;;
18021;SDS011;9136;48.822;7.966;2023-03-02T04:34:27;23.60;;;22.40;;
18021;SDS011;9136;48.822;7.966;2023-03-02T04:37:15;25.23;;;24.07;;
18021;SDS011;9136;48.822;7.966;2023-03-02T04:40:04;24.40;;;23.13;;
18021;SDS011;9136;48.822;7.966;2023-03-02T04:42:55;25.00;;;23.70;;
18021;SDS011;9136;48.822;7.966;2023-03-02T04:45:43;25.20;;;23.40;;
18021;SDS011;9136;48.822;7.966;2023-03-02T04:48:30;26.67;;;24.93;;
18021;SDS011;9136;48.822;7.966;2023-03-02T04:51:21;24.10;;;22.97;;
18021;SDS011;9136;48.822;7.966;2023-03-02T04:54:14;25.03;;;23.83;;
18021;SDS011;9136;48.822;7.966;2023-03-02T04:57:04;25.73;;;24.33;;
18021;SDS011;9136;48.822;7.966;2023-03-02T04:59:54;25.37;;;23.97;;
18021;SDS011;9136;48.822;7.966;2023-03-02T05:02:42;24.73;;;23.50;;
18021;SDS011;9136;48.822;7.966;2023-03-02T05:05:30;24.10;;;22.90;;
18021;SDS011;9136;48.822;7.966;2023-03-02T05:08:19;23.53;;;22.47;;
18021;SDS011;9136;48.822;7.966;2023-03-02T05:11:07;26.80;;;25.13;;
18021;SDS011;9136;48.822;7.966;2023-03-02T05:14:04;24.07;;;22.77;;
18021;SDS011;9136;48.822;7.966;2023-03-02T05:16:55;25.07;;;23.77;;
18021;SDS011;9136;48.822;7.966;2023-03-02T05:19:43;28.47;;;27.00;;
18021;SDS011;9136;48.822;7.966;2023-03-02T05:22:31;25.87;;;24.40;;
18021;SDS011;9136;48.822;7.966;2023-03-02T05:25:19;25.30;;;24.00;;
18021;SDS011;9136;48.822;7.966;2023-03-02T05:28:10;25.00;;;23.73;;
18021;SDS011;9136;48.822;7.966;2023-03-02T05:30:58;25.93;;;24.63;;
18021;SDS011;9136;48.822;7.966;2023-03-02T05:33:49;25.33;;;24.13;;
18021;SDS011;9136;48.822;7.966;2023-03-02T05:36:37;27.27;;;25.97;;
18021;SDS011;9136;48.822;7.966;2023-03-02T05:39:25;27.53;;;26.20;;
18021;SDS011;9136;48.822;7.966;2023-03-02T05:42:13;25.50;;;24.20;;
18021;SDS011;9136;48.822;7.966;2023-03-02T05:45:01;24.13;;;22.93;;
18021;SDS011;9136;48.822;7.966;2023-03-02T05:47:49;27.60;;;26.10;;
18021;SDS011;9136;48.822;7.966;2023-03-02T05:50:39;23.57;;;22.47;;
18021;SDS011;9136;48.822;7.966;2023-03-02T05:53:27;26.57;;;25.17;;
18021;SDS011;9136;48.822;7.966;2023-03-02T05:56:14;27.67;;;26.17;;
18021;SDS011;9136;48.822;7.966;2023-03-02T05:59:02;25.03;;;23.83;;
18021;SDS011;9136;48.822;7.966;2023-03-02T06:01:50;24.73;;;23.30;;
18021;SDS011;9136;48.822;7.966;2023-03-02T06:04:43;25.43;;;24.23;;
18021;SDS011;9136;48.822;7.966;2023-03-02T06:07:33;24.30;;;23.13;;
18021;SDS011;9136;48.822;7.966;2023-03-02T06:10:21;27.47;;;25.87;;
18021;SDS011;9136;48.822;7.966;2023-03-02T06:13:09;24.40;;;22.70;;
18021;SDS011;9136;48.822;7.966;2023-03-02T06:15:57;26.33;;;25.03;;
18021;SDS011;9136;48.822;7.966;2023-03-02T06:18:45;27.97;;;26.67;;
18021;SDS011;9136;48.822;7.966;2023-03-02T06:21:33;27.53;;;25.77;;
18021;SDS011;9136;48.822;7.966;2023-03-02T06:24:22;29.53;;;27.53;;
18021;SDS011;9136;48.822;7.966;2023-03-02T06:30:24;25.30;;;23.57;;
18021;SDS011;9136;48.822;7.966;2023-03-02T06:33:13;24.63;;;23.43;;
18021;SDS011;9136;48.822;7.966;2023-03-02T06:36:01;25.27;;;24.00;;
18021;SDS011;9136;48.822;7.966;2023-03-02T06:38:48;27.17;;;25.80;;
18021;SDS011;9136;48.822;7.966;2023-03-02T06:41:38;24.40;;;23.23;;
18021;SDS011;9136;48.822;7.966;2023-03-02T06:44:26;28.63;;;26.97;;
18021;SDS011;9136;48.822;7.966;2023-03-02T06:47:13;26.43;;;25.07;;
18021;SDS011;9136;48.822;7.966;2023-03-02T06:50:04;30.73;;;29.03;;
18021;SDS011;9136;48.822;7.966;2023-03-02T06:52:53;27.40;;;25.90;;
18021;SDS011;9136;48.822;7.966;2023-03-02T06:55:41;23.83;;;22.53;;
18021;SDS011;9136;48.822;7.966;2023-03-02T06:58:31;24.77;;;23.17;;
18021;SDS011;9136;48.822;7.966;2023-03-02T07:01:18;28.07;;;26.47;;
18021;SDS011;9136;48.822;7.966;2023-03-02T07:04:06;28.07;;;26.53;;
18021;SDS011;9136;48.822;7.966;2023-03-02T07:06:54;28.60;;;27.13;;
18021;SDS011;9136;48.822;7.966;2023-03-02T07:09:42;29.33;;;27.07;;
18021;SDS011;9136;48.822;7.966;2023-03-02T07:12:29;27.07;;;25.67;;
18021;SDS011;9136;48.822;7.966;2023-03-02T07:15:20;26.33;;;25.10;;
18021;SDS011;9136;48.822;7.966;2023-03-02T07:18:08;25.40;;;24.07;;
18021;SDS011;9136;48.822;7.966;2023-03-02T07:20:55;24.73;;;23.23;;
18021;SDS011;9136;48.822;7.966;2023-03-02T07:23:43;25.10;;;23.90;;
18021;SDS011;9136;48.822;7.966;2023-03-02T07:26:31;24.17;;;23.07;;
18021;SDS011;9136;48.822;7.966;2023-03-02T07:29:19;29.47;;;28.07;;
18021;SDS011;9136;48.822;7.966;2023-03-02T07:32:08;23.47;;;22.17;;
18021;SDS011;9136;48.822;7.966;2023-03-02T07:34:56;23.80;;;22.50;;
18021;SDS011;9136;48.822;7.966;2023-03-02T07:37:44;26.67;;;25.20;;
18021;SDS011;9136;48.822;7.966;2023-03-02T07:40:32;27.57;;;26.23;;
18021;SDS011;9136;48.822;7.966;2023-03-02T07:43:20;26.27;;;24.70;;
18021;SDS011;9136;48.822;7.966;2023-03-02T07:46:09;25.57;;;24.10;;
18021;SDS011;9136;48.822;7.966;2023-03-02T07:48:58;28.20;;;26.73;;
18021;SDS011;9136;48.822;7.966;2023-03-02T07:51:46;25.37;;;24.17;;
18021;SDS011;9136;48.822;7.966;2023-03-02T07:54:34;24.90;;;23.60;;
18021;SDS011;9136;48.822;7.966;2023-03-02T07:57:21;24.83;;;23.43;;
18021;SDS011;9136;48.822;7.966;2023-03-02T08:00:10;27.63;;;26.17;;
18021;SDS011;9136;48.822;7.966;2023-03-02T08:02:58;24.57;;;23.33;;
18021;SDS011;9136;48.822;7.966;2023-03-02T08:05:47;25.77;;;24.47;;
18021;SDS011;9136;48.822;7.966;2023-03-02T08:08:35;25.63;;;24.27;;
18021;SDS011;9136;48.822;7.966;2023-03-02T08:11:23;24.27;;;23.07;;
18021;SDS011;9136;48.822;7.966;2023-03-02T08:14:11;26.20;;;24.67;;
18021;SDS011;9136;48.822;7.966;2023-03-02T08:17:00;23.33;;;22.17;;
18021;SDS011;9136;48.822;7.966;2023-03-02T08:19:48;26.10;;;24.50;;
18021;SDS011;9136;48.822;7.966;2023-03-02T08:22:38;26.37;;;25.03;;
18021;SDS011;9136;48.822;7.966;2023-03-02T08:25:26;22.90;;;21.90;;
18021;SDS011;9136;48.822;7.966;2023-03-02T08:28:13;24.40;;;23.10;;
18021;SDS011;9136;48.822;7.966;2023-03-02T08:31:02;22.03;;;21.03;;
18021;SDS011;9136;48.822;7.966;2023-03-02T08:33:50;24.50;;;23.30;;
18021;SDS011;9136;48.822;7.966;2023-03-02T08:36:38;25.20;;;23.90;;
18021;SDS011;9136;48.822;7.966;2023-03-02T08:39:29;21.40;;;20.40;;
18021;SDS011;9136;48.822;7.966;2023-03-02T08:42:18;27.70;;;26.00;;
18021;SDS011;9136;48.822;7.966;2023-03-02T08:45:06;24.07;;;22.93;;
18021;SDS011;9136;48.822;7.966;2023-03-02T08:47:55;23.10;;;22.03;;
18021;SDS011;9136;48.822;7.966;2023-03-02T08:50:43;38.17;;;23.33;;
18021;SDS011;9136;48.822;7.966;2023-03-02T08:53:32;21.73;;;20.67;;
18021;SDS011;9136;48.822;7.966;2023-03-02T08:56:25;23.30;;;22.20;;
18021;SDS011;9136;48.822;7.966;2023-03-02T08:59:15;24.37;;;22.97;;
18021;SDS011;9136;48.822;7.966;2023-03-02T09:02:03;22.13;;;21.13;;
18021;SDS011;9136;48.822;7.966;2023-03-02T09:04:51;22.10;;;20.70;;
18021;SDS011;9136;48.822;7.966;2023-03-02T09:07:39;24.60;;;23.43;;
18021;SDS011;9136;48.822;7.966;2023-03-02T09:10:26;22.57;;;21.47;;
18021;SDS011;9136;48.822;7.966;2023-03-02T09:13:16;23.27;;;22.27;;
18021;SDS011;9136;48.822;7.966;2023-03-02T09:16:04;23.40;;;22.33;;
18021;SDS011;9136;48.822;7.966;2023-03-02T09:18:53;20.87;;;19.87;;
18021;SDS011;9136;48.822;7.966;2023-03-02T09:21:41;27.37;;;24.20;;
18021;SDS011;9136;48.822;7.966;2023-03-02T09:24:29;21.23;;;20.23;;
18021;SDS011;9136;48.822;7.966;2023-03-02T09:27:17;23.10;;;22.00;;
18021;SDS011;9136;48.822;7.966;2023-03-02T09:30:07;20.00;;;19.10;;
18021;SDS011;9136;48.822;7.966;2023-03-02T09:32:56;20.73;;;19.73;;
18021;SDS011;9136;48.822;7.966;2023-03-02T09:35:43;19.10;;;18.20;;
18021;SDS011;9136;48.822;7.966;2023-03-02T09:38:32;20.03;;;19.13;;
18021;SDS011;9136;48.822;7.966;2023-03-02T09:45:03;22.47;;;20.83;;
18021;SDS011;9136;48.822;7.966;2023-03-02T09:48:10;21.40;;;20.50;;
18021;SDS011;9136;48.822;7.966;2023-03-02T09:51:14;20.93;;;19.87;;
18021;SDS011;9136;48.822;7.966;2023-03-02T09:54:12;21.60;;;20.60;;
18021;SDS011;9136;48.822;7.966;2023-03-02T09:57:01;22.07;;;20.63;;
18021;SDS011;9136;48.822;7.966;2023-03-02T09:59:53;23.87;;;22.40;;
18021;SDS011;9136;48.822;7.966;2023-03-02T10:02:47;21.80;;;20.70;;
18021;SDS011;9136;48.822;7.966;2023-03-02T10:05:38;23.67;;;22.10;;
18021;SDS011;9136;48.822;7.966;2023-03-02T10:08:28;23.97;;;21.87;;
18021;SDS011;9136;48.822;7.966;2023-03-02T10:11:21;21.23;;;20.33;;
18021;SDS011;9136;48.822;7.966;2023-03-02T10:14:22;24.77;;;23.47;;
18021;SDS011;9136;48.822;7.966;2023-03-02T10:17:20;24.53;;;23.17;;
18021;SDS011;9136;48.822;7.966;2023-03-02T10:20:28;20.80;;;19.70;;
18021;SDS011;9136;48.822;7.966;2023-03-02T10:23:25;21.10;;;19.90;;
18021;SDS011;9136;48.822;7.966;2023-03-02T10:26:25;23.63;;;22.30;;
18021;SDS011;9136;48.822;7.966;2023-03-02T10:29:26;19.50;;;18.60;;
18021;SDS011;9136;48.822;7.966;2023-03-02T10:32:23;24.03;;;22.73;;
18021;SDS011;9136;48.822;7.966;2023-03-02T10:35:15;23.83;;;22.57;;
18021;SDS011;9136;48.822;7.966;2023-03-02T10:38:11;20.60;;;19.70;;
18021;SDS011;9136;48.822;7.966;2023-03-02T10:41:01;23.40;;;22.30;;
18021;SDS011;9136;48.822;7.966;2023-03-02T10:43:53;20.53;;;19.57;;
18021;SDS011;9136;48.822;7.966;2023-03-02T10:46:44;21.10;;;20.00;;
18021;SDS011;9136;48.822;7.966;2023-03-02T10:49:33;23.57;;;21.93;;
18021;SDS011;9136;48.822;7.966;2023-03-02T10:52:24;20.37;;;19.37;;
18021;SDS011;9136;48.822;7.966;2023-03-02T10:55:15;19.27;;;18.37;;
18021;SDS011;9136;48.822;7.966;2023-03-02T10:58:04;19.73;;;18.73;;
18021;SDS011;9136;48.822;7.966;2023-03-02T11:00:57;20.30;;;19.30;;
18021;SDS011;9136;48.822;7.966;2023-03-02T11:03:55;19.27;;;18.17;;
18021;SDS011;9136;48.822;7.966;2023-03-02T11:06:45;21.40;;;20.03;;
18021;SDS011;9136;48.822;7.966;2023-03-02T11:09:32;19.33;;;18.23;;
18021;SDS011;9136;48.822;7.966;2023-03-02T11:12:22;21.37;;;20.20;;
18021;SDS011;9136;48.822;7.966;2023-03-02T11:15:15;19.40;;;18.37;;
18021;SDS011;9136;48.822;7.966;2023-03-02T11:18:11;19.40;;;18.40;;
18021;SDS011;9136;48.822;7.966;2023-03-02T11:21:09;21.30;;;19.60;;
18021;SDS011;9136;48.822;7.966;2023-03-02T11:24:04;20.07;;;18.93;;
18021;SDS011;9136;48.822;7.966;2023-03-02T11:26:58;20.53;;;19.17;;
18021;SDS011;9136;48.822;7.966;2023-03-02T11:29:53;20.30;;;19.07;;
18021;SDS011;9136;48.822;7.966;2023-03-02T11:32:51;18.93;;;17.83;;
18021;SDS011;9136;48.822;7.966;2023-03-02T11:35:47;19.80;;;18.40;;
18021;SDS011;9136;48.822;7.966;2023-03-02T11:38:40;21.07;;;19.77;;
18021;SDS011;9136;48.822;7.966;2023-03-02T11:41:33;19.03;;;17.83;;
18021;SDS011;9136;48.822;7.966;2023-03-02T11:44:22;19.13;;;17.93;;
18021;SDS011;9136;48.822;7.966;2023-03-02T11:47:13;19.50;;;18.30;;
18021;SDS011;9136;48.822;7.966;2023-03-02T11:50:04;18.40;;;17.43;;
18021;SDS011;9136;48.822;7.966;2023-03-02T11:52:53;20.27;;;18.90;;
18021;SDS011;9136;48.822;7.966;2023-03-02T11:55:46;19.37;;;18.27;;
18021;SDS011;9136;48.822;7.966;2023-03-02T11:58:35;19.20;;;18.20;;
18021;SDS011;9136;48.822;7.966;2023-03-02T12:01:25;18.97;;;17.87;;
18021;SDS011;9136;48.822;7.966;2023-03-02T12:04:25;18.30;;;17.30;;
18021;SDS011;9136;48.822;7.966;2023-03-02T12:07:15;19.63;;;18.33;;
18021;SDS011;9136;48.822;7.966;2023-03-02T12:10:06;19.87;;;18.23;;
18021;SDS011;9136;48.822;7.966;2023-03-02T12:13:12;17.37;;;16.47;;
18021;SDS011;9136;48.822;7.966;2023-03-02T12:16:03;21.77;;;20.47;;
18021;SDS011;9136;48.822;7.966;2023-03-02T12:19:11;21.33;;;19.80;;
18021;SDS011;9136;48.822;7.966;2023-03-02T12:22:02;19.97;;;18.53;;
18021;SDS011;9136;48.822;7.966;2023-03-02T12:24:59;20.60;;;19.37;;
18021;SDS011;9136;48.822;7.966;2023-03-02T12:27:51;19.50;;;18.17;;
18021;SDS011;9136;48.822;7.966;2023-03-02T12:30:40;20.03;;;18.90;;
18021;SDS011;9136;48.822;7.966;2023-03-02T12:33:28;19.33;;;18.23;;
18021;SDS011;9136;48.822;7.966;2023-03-02T12:36:17;19.60;;;18.13;;
18021;SDS011;9136;48.822;7.966;2023-03-02T12:39:16;18.77;;;17.50;;
18021;SDS011;9136;48.822;7.966;2023-03-02T12:42:21;20.07;;;18.77;;
18021;SDS011;9136;48.822;7.966;2023-03-02T12:45:28;23.07;;;21.23;;
18021;SDS011;9136;48.822;7.966;2023-03-02T12:48:25;20.67;;;19.40;;
18021;SDS011;9136;48.822;7.966;2023-03-02T12:51:17;19.90;;;18.37;;
18021;SDS011;9136;48.822;7.966;2023-03-02T12:54:11;18.07;;;17.03;;
18021;SDS011;9136;48.822;7.966;2023-03-02T12:57:05;19.57;;;18.27;;
18021;SDS011;9136;48.822;7.966;2023-03-02T13:00:00;20.83;;;19.53;;
18021;SDS011;9136;48.822;7.966;2023-03-02T13:02:50;20.00;;;18.90;;
18021;SDS011;9136;48.822;7.966;2023-03-02T13:05:39;19.20;;;18.10;;
18021;SDS011;9136;48.822;7.966;2023-03-02T13:08:27;17.93;;;16.93;;
18021;SDS011;9136;48.822;7.966;2023-03-02T13:11:20;19.33;;;18.37;;
18021;SDS011;9136;48.822;7.966;2023-03-02T13:14:19;21.13;;;19.60;;
18021;SDS011;9136;48.822;7.966;2023-03-02T13:17:21;19.93;;;18.73;;
18021;SDS011;9136;48.822;7.966;2023-03-02T13:20:12;17.93;;;17.03;;
18021;SDS011;9136;48.822;7.966;2023-03-02T13:23:00;19.27;;;18.20;;
18021;SDS011;9136;48.822;7.966;2023-03-02T13:25:51;18.80;;;17.80;;
18021;SDS011;9136;48.822;7.966;2023-03-02T13:28:40;19.83;;;18.53;;
18021;SDS011;9136;48.822;7.966;2023-03-02T13:31:29;18.07;;;17.07;;
18021;SDS011;9136;48.822;7.966;2023-03-02T13:34:18;21.30;;;20.00;;
18021;SDS011;9136;48.822;7.966;2023-03-02T13:37:14;18.43;;;17.20;;
18021;SDS011;9136;48.822;7.966;2023-03-02T13:40:23;18.13;;;17.10;;
18021;SDS011;9136;48.822;7.966;2023-03-02T13:43:23;19.20;;;17.90;;
18021;SDS011;9136;48.822;7.966;2023-03-02T13:46:27;18.10;;;17.00;;
18021;SDS011;9136;48.822;7.966;2023-03-02T13:49:27;18.23;;;17.13;;
18021;SDS011;9136;48.822;7.966;2023-03-02T13:52:17;16.17;;;15.30;;
18021;SDS011;9136;48.822;7.966;2023-03-02T13:55:12;18.67;;;17.50;;
18021;SDS011;9136;48.822;7.966;2023-03-02T13:58:01;18.00;;;16.70;;
18021;SDS011;9136;48.822;7.966;2023-03-02T14:00:49;16.73;;;15.73;;
18021;SDS011;9136;48.822;7.966;2023-03-02T14:03:39;19.97;;;18.67;;
18021;SDS011;9136;48.822;7.966;2023-03-02T14:06:27;19.13;;;18.00;;
18021;SDS011;9136;48.822;7.966;2023-03-02T14:09:16;17.03;;;16.17;;
18021;SDS011;9136;48.822;7.966;2023-03-02T14:12:04;19.97;;;18.77;;
18021;SDS011;9136;48.822;7.966;2023-03-02T14:14:53;19.33;;;18.33;;
18021;SDS011;9136;48.822;7.966;2023-03-02T14:17:44;20.03;;;18.93;;
18021;SDS011;9136;48.822;7.966;2023-03-02T14:20:35;19.40;;;17.70;;
18021;SDS011;9136;48.822;7.966;2023-03-02T14:23:23;18.03;;;17.07;;
18021;SDS011;9136;48.822;7.966;2023-03-02T14:26:25;18.03;;;17.03;;
18021;SDS011;9136;48.822;7.966;2023-03-02T14:29:19;17.03;;;16.13;;
18021;SDS011;9136;48.822;7.966;2023-03-02T14:32:09;18.17;;;16.73;;
18021;SDS011;9136;48.822;7.966;2023-03-02T14:34:58;18.43;;;17.30;;
18021;SDS011;9136;48.822;7.966;2023-03-02T14:37:48;19.07;;;17.90;;
18021;SDS011;9136;48.822;7.966;2023-03-02T14:40:36;17.43;;;16.20;;
18021;SDS011;9136;48.822;7.966;2023-03-02T14:43:24;18.13;;;17.20;;
18021;SDS011;9136;48.822;7.966;2023-03-02T14:46:12;18.97;;;17.97;;
18021;SDS011;9136;48.822;7.966;2023-03-02T14:49:00;20.70;;;19.57;;
18021;SDS011;9136;48.822;7.966;2023-03-02T14:51:52;21.17;;;19.67;;
18021;SDS011;9136;48.822;7.966;2023-03-02T14:54:46;20.17;;;19.07;;
18021;SDS011;9136;48.822;7.966;2023-03-02T14:57:37;19.00;;;18.00;;
18021;SDS011;9136;48.822;7.966;2023-03-02T15:00:25;18.83;;;17.77;;
18021;SDS011;9136;48.822;7.966;2023-03-02T15:03:13;19.03;;;18.13;;
18021;SDS011;9136;48.822;7.966;2023-03-02T15:06:05;19.30;;;18.13;;
18021;SDS011;9136;48.822;7.966;2023-03-02T15:08:58;17.80;;;16.90;;
18021;SDS011;9136;48.822;7.966;2023-03-02T15:11:48;19.40;;;18.23;;
18021;SDS011;9136;48.822;7.966;2023-03-02T15:14:36;20.27;;;19.17;;
18021;SDS011;9136;48.822;7.966;2023-03-02T15:17:23;28.03;;;19.67;;
18021;SDS011;9136;48.822;7.966;2023-03-02T15:20:12;18.77;;;17.83;;
18021;SDS011;9136;48.822;7.966;2023-03-02T15:23:01;17.20;;;16.20;;
18021;SDS011;9136;48.822;7.966;2023-03-02T15:25:48;18.93;;;17.93;;
18021;SDS011;9136;48.822;7.966;2023-03-02T15:28:38;18.93;;;17.93;;
18021;SDS011;9136;48.822;7.966;2023-03-02T15:31:26;19.93;;;18.83;;
18021;SDS011;9136;48.822;7.966;2023-03-02T15:34:14;19.20;;;17.90;;
18021;SDS011;9136;48.822;7.966;2023-03-02T15:37:01;17.87;;;16.80;;
18021;SDS011;9136;48.822;7.966;2023-03-02T15:39:51;20.03;;;18.83;;
18021;SDS011;9136;48.822;7.966;2023-03-02T15:42:40;17.40;;;16.50;;
18021;SDS011;9136;48.822;7.966;2023-03-02T15:45:29;21.80;;;19.80;;
18021;SDS011;9136;48.822;7.966;2023-03-02T15:48:17;18.70;;;17.70;;
18021;SDS011;9136;48.822;7.966;2023-03-02T15:51:05;18.83;;;17.83;;
18021;SDS011;9136;48.822;7.966;2023-03-02T15:53:54;20.50;;;19.07;;
18021;SDS011;9136;48.822;7.966;2023-03-02T15:56:41;22.10;;;20.93;;
18021;SDS011;9136;48.822;7.966;2023-03-02T15:59:30;22.70;;;21.43;;
18021;SDS011;9136;48.822;7.966;2023-03-02T16:02:20;21.83;;;19.70;;
18021;SDS011;9136;48.822;7.966;2023-03-02T16:05:08;17.57;;;16.33;;
18021;SDS011;9136;48.822;7.966;2023-03-02T16:07:56;19.00;;;18.00;;
18021;SDS011;9136;48.822;7.966;2023-03-02T16:10:53;18.30;;;17.27;;
18021;SDS011;9136;48.822;7.966;2023-03-02T16:13:41;18.93;;;17.93;;
18021;SDS011;9136;48.822;7.966;2023-03-02T16:16:29;19.73;;;18.63;;
18021;SDS011;9136;48.822;7.966;2023-03-02T16:19:18;21.17;;;19.87;;
18021;SDS011;9136;48.822;7.966;2023-03-02T16:22:06;20.07;;;19.07;;
18021;SDS011;9136;48.822;7.966;2023-03-02T16:24:54;20.77;;;19.57;;
18021;SDS011;9136;48.822;7.966;2023-03-02T16:27:42;19.47;;;18.57;;
18021;SDS011;9136;48.822;7.966;2023-03-02T16:30:32;22.00;;;20.80;;
18021;SDS011;9136;48.822;7.966;2023-03-02T16:33:21;20.03;;;19.00;;
18021;SDS011;9136;48.822;7.966;2023-03-02T16:36:12;18.30;;;17.40;;
18021;SDS011;9136;48.822;7.966;2023-03-02T16:39:01;18.33;;;17.43;;
18021;SDS011;9136;48.822;7.966;2023-03-02T16:41:49;19.37;;;17.87;;
18021;SDS011;9136;48.822;7.966;2023-03-02T16:44:37;20.27;;;19.17;;
18021;SDS011;9136;48.822;7.966;2023-03-02T16:47:25;19.40;;;18.33;;
18021;SDS011;9136;48.822;7.966;2023-03-02T16:50:13;21.13;;;19.73;;
18021;SDS011;9136;48.822;7.966;2023-03-02T16:53:03;20.97;;;19.83;;
18021;SDS011;9136;48.822;7.966;2023-03-02T16:55:51;21.27;;;20.17;;